createdAt,value
2023-04-30T00:01:01.388Z,6.25
2023-04-30T00:03:28.401Z,5.70
2023-04-30T00:05:55.552Z,6.75
2023-04-30T00:08:22.469Z,6.50
2023-04-30T00:10:49.528Z,6.95
2023-04-30T00:13:16.625Z,7.60
2023-04-30T00:15:43.572Z,8.55
2023-04-30T00:18:10.666Z,8.80
2023-04-30T00:20:37.630Z,8.98
2023-04-30T00:23:04.574Z,8.77
2023-04-30T00:25:34.601Z,8.88
2023-04-30T00:30:28.469Z,8.38
2023-04-30T00:32:55.446Z,9.73
2023-04-30T00:35:23.809Z,9.50
2023-04-30T00:37:50.782Z,10.98
2023-04-30T00:40:17.952Z,10.30
2023-04-30T00:42:44.980Z,10.82
2023-04-30T00:45:12.126Z,11.18
2023-04-30T00:47:39.185Z,10.85
2023-04-30T00:50:06.713Z,10.23
2023-04-30T00:52:33.846Z,11.60
2023-04-30T00:55:01.171Z,11.88
2023-04-30T00:57:28.876Z,13.13
2023-04-30T00:59:56.317Z,11.25
2023-04-30T01:02:23.999Z,12.57
2023-04-30T01:04:52.233Z,11.85
2023-04-30T01:07:19.349Z,9.35
2023-04-30T01:09:46.612Z,10.55
2023-04-30T01:12:34.700Z,9.57
2023-04-30T01:15:10.987Z,9.93
2023-04-30T01:17:58.510Z,9.32
2023-04-30T01:20:28.635Z,9.95
2023-04-30T01:25:36.633Z,8.17
2023-04-30T01:28:25.001Z,8.95
2023-04-30T01:30:52.206Z,9.07
2023-04-30T01:33:19.143Z,8.45
2023-04-30T01:35:55.033Z,8.00
2023-04-30T01:38:59.736Z,7.65
2023-04-30T01:41:45.361Z,7.30
2023-04-30T01:44:41.324Z,7.25
2023-04-30T01:47:18.089Z,6.20
2023-04-30T01:50:06.515Z,6.05
2023-04-30T01:53:00.853Z,6.32
2023-04-30T01:55:30.583Z,6.60
2023-04-30T01:57:59.954Z,6.40
2023-04-30T02:02:55.859Z,8.25
2023-04-30T02:05:23.229Z,6.95
2023-04-30T02:07:51.754Z,7.35
2023-04-30T02:10:23.216Z,6.88
2023-04-30T02:12:50.193Z,7.25
2023-04-30T02:15:17.348Z,6.85
2023-04-30T02:17:44.431Z,7.03
2023-04-30T02:20:12.274Z,7.03
2023-04-30T02:22:39.380Z,7.63
2023-04-30T02:25:06.774Z,6.72
2023-04-30T02:27:34.490Z,7.15
2023-04-30T02:30:01.788Z,7.78
2023-04-30T02:32:29.000Z,7.32
2023-04-30T02:34:56.037Z,7.90
2023-04-30T02:37:23.357Z,7.78
2023-04-30T02:39:53.694Z,9.32
2023-04-30T02:42:21.027Z,7.28
2023-04-30T02:44:47.981Z,7.82
2023-04-30T02:47:15.454Z,8.40
2023-04-30T02:49:42.398Z,7.53
2023-04-30T02:52:10.217Z,7.93
2023-04-30T02:54:37.785Z,7.82
2023-04-30T02:57:05.107Z,7.97
2023-04-30T02:59:32.071Z,7.90
2023-04-30T03:01:59.086Z,8.00
2023-04-30T03:04:26.512Z,7.90
2023-04-30T03:06:53.479Z,7.72
2023-04-30T03:09:20.506Z,7.65
2023-04-30T03:11:47.393Z,7.82
2023-04-30T03:14:14.599Z,7.10
2023-04-30T03:16:41.665Z,7.93
2023-04-30T03:19:08.637Z,7.50
2023-04-30T03:21:35.631Z,8.27
2023-04-30T03:24:02.526Z,8.00
2023-04-30T03:26:30.549Z,9.77
2023-04-30T03:28:57.445Z,7.80
2023-04-30T03:31:24.757Z,8.98
2023-04-30T03:33:51.727Z,8.30
2023-04-30T03:36:18.759Z,9.10
2023-04-30T03:38:45.721Z,8.85
2023-04-30T03:41:12.756Z,8.90
2023-04-30T03:43:39.688Z,9.57
2023-04-30T03:46:06.933Z,10.43
2023-04-30T03:48:33.940Z,8.90
2023-04-30T03:51:01.667Z,10.57
2023-04-30T03:53:28.716Z,11.45
2023-04-30T03:55:56.203Z,11.15
2023-04-30T03:58:23.491Z,11.40
2023-04-30T04:00:50.702Z,11.23
2023-04-30T04:03:18.291Z,10.85
2023-04-30T04:05:46.403Z,10.88
2023-04-30T04:08:13.297Z,11.25
2023-04-30T04:10:40.786Z,10.35
2023-04-30T04:13:09.041Z,11.38
2023-04-30T04:15:36.360Z,10.13
2023-04-30T04:18:04.090Z,10.43
2023-04-30T04:20:32.905Z,10.65
2023-04-30T04:22:59.958Z,10.38
2023-04-30T04:25:27.677Z,10.35
2023-04-30T04:27:55.686Z,9.98
2023-04-30T04:30:22.695Z,9.70
2023-04-30T04:32:54.234Z,9.23
2023-04-30T04:35:21.365Z,9.25
2023-04-30T04:37:48.509Z,9.05
2023-04-30T04:40:15.747Z,8.00
2023-04-30T04:42:42.779Z,7.82
2023-04-30T04:45:10.307Z,8.77
2023-04-30T04:47:39.048Z,8.05
2023-04-30T04:50:08.138Z,8.07
2023-04-30T04:52:35.336Z,7.22
2023-04-30T04:55:02.299Z,6.95
2023-04-30T04:57:29.277Z,5.85
2023-04-30T04:59:56.629Z,6.32
2023-04-30T05:02:23.925Z,7.00
2023-04-30T05:04:51.867Z,7.13
2023-04-30T05:07:19.376Z,6.80
2023-04-30T05:09:47.405Z,6.68
2023-04-30T05:12:15.143Z,7.00
2023-04-30T05:14:43.260Z,6.80
2023-04-30T05:17:10.214Z,6.53
2023-04-30T05:19:37.199Z,6.32
2023-04-30T05:22:04.440Z,6.93
2023-04-30T05:24:31.503Z,6.18
2023-04-30T05:26:58.459Z,7.53
2023-04-30T05:29:25.517Z,7.85
2023-04-30T05:31:52.679Z,8.50
2023-04-30T05:34:19.777Z,7.85
2023-04-30T05:36:46.760Z,8.55
2023-04-30T05:39:14.459Z,9.32
2023-04-30T05:41:41.431Z,9.02
2023-04-30T05:44:08.399Z,9.68
2023-04-30T05:46:35.731Z,9.48
2023-04-30T05:49:03.186Z,8.77
2023-04-30T05:51:33.889Z,11.32
2023-04-30T05:54:00.913Z,9.18
2023-04-30T05:56:27.965Z,10.73
2023-04-30T05:58:55.008Z,8.73
2023-04-30T06:01:22.585Z,8.65
2023-04-30T06:03:49.582Z,9.60
2023-04-30T06:06:16.655Z,13.18
2023-04-30T06:08:45.633Z,9.30
2023-04-30T06:11:13.518Z,10.10
2023-04-30T06:13:41.045Z,8.63
2023-04-30T06:16:08.846Z,9.35
2023-04-30T06:18:36.356Z,9.18
2023-04-30T06:21:03.363Z,8.38
2023-04-30T06:23:30.518Z,9.00
2023-04-30T06:25:57.629Z,8.52
2023-04-30T06:28:24.656Z,8.52
2023-04-30T06:30:52.296Z,8.77
2023-04-30T06:33:19.236Z,8.75
2023-04-30T06:35:46.542Z,8.60
2023-04-30T06:38:14.413Z,8.93
2023-04-30T06:40:41.477Z,9.07
2023-04-30T06:43:08.516Z,8.85
2023-04-30T06:45:35.795Z,6.60
2023-04-30T06:48:02.920Z,5.97
2023-04-30T06:50:29.988Z,5.18
2023-04-30T06:52:56.920Z,4.68
2023-04-30T06:55:25.140Z,5.97
2023-04-30T06:57:52.759Z,4.93
2023-04-30T07:00:19.803Z,5.35
2023-04-30T07:02:51.488Z,5.13
2023-04-30T07:05:19.198Z,5.60
2023-04-30T07:07:46.789Z,4.70
2023-04-30T07:10:14.146Z,5.40
2023-04-30T07:12:41.209Z,4.68
2023-04-30T07:15:08.619Z,4.90
2023-04-30T07:17:35.772Z,5.15
2023-04-30T07:20:04.750Z,5.35
2023-04-30T07:22:32.124Z,5.35
2023-04-30T07:24:59.270Z,4.72
2023-04-30T07:27:26.679Z,4.85
2023-04-30T07:29:53.738Z,4.85
2023-04-30T07:32:21.251Z,4.95
2023-04-30T07:34:48.861Z,4.72
2023-04-30T07:37:15.923Z,5.13
2023-04-30T07:39:42.867Z,4.60
2023-04-30T07:42:09.928Z,4.70
2023-04-30T07:44:36.824Z,4.10
2023-04-30T07:47:03.915Z,5.00
2023-04-30T07:49:30.805Z,4.75
2023-04-30T07:51:58.156Z,4.80
2023-04-30T07:54:25.186Z,4.32
2023-04-30T07:56:52.081Z,4.20
2023-04-30T07:59:19.208Z,4.30
2023-04-30T08:01:46.152Z,4.00
2023-04-30T08:04:13.224Z,4.63
2023-04-30T08:06:40.252Z,4.63
2023-04-30T08:09:07.366Z,5.13
2023-04-30T08:11:34.253Z,4.50
2023-04-30T08:14:01.230Z,5.13
2023-04-30T08:16:28.239Z,6.07
2023-04-30T08:18:55.359Z,4.30
2023-04-30T08:21:22.365Z,5.18
2023-04-30T08:23:49.881Z,4.75
2023-04-30T08:26:16.833Z,5.00
2023-04-30T08:28:43.912Z,4.38
2023-04-30T08:31:11.309Z,5.15
2023-04-30T08:33:38.468Z,4.38
2023-04-30T08:36:05.669Z,4.80
2023-04-30T08:38:32.748Z,4.90
2023-04-30T08:41:11.861Z,5.07
2023-04-30T08:43:39.835Z,4.85
2023-04-30T08:46:07.489Z,5.72
2023-04-30T08:48:34.886Z,5.00
2023-04-30T08:51:03.518Z,5.00
2023-04-30T08:53:31.975Z,4.75
2023-04-30T08:55:58.883Z,5.00
2023-04-30T08:58:25.807Z,4.97
2023-04-30T09:00:52.729Z,4.93
2023-04-30T09:03:22.404Z,5.50
2023-04-30T09:05:49.428Z,4.88
2023-04-30T09:08:20.630Z,5.00
2023-04-30T09:10:47.693Z,5.32
2023-04-30T09:13:14.673Z,4.97
2023-04-30T09:15:42.090Z,4.68
2023-04-30T09:18:18.845Z,5.55
2023-04-30T09:21:01.041Z,4.90
2023-04-30T09:23:28.491Z,5.65
2023-04-30T09:25:56.769Z,4.90
2023-04-30T09:28:26.750Z,5.00
2023-04-30T09:30:54.490Z,4.63
2023-04-30T09:33:21.452Z,5.78
2023-04-30T09:35:49.169Z,6.20
2023-04-30T09:38:26.371Z,5.60
2023-04-30T09:40:53.432Z,4.70
2023-04-30T09:43:20.548Z,5.10
2023-04-30T09:45:50.008Z,4.72
2023-04-30T09:48:18.673Z,4.95
2023-04-30T09:50:46.433Z,4.77
2023-04-30T09:53:14.725Z,4.35
2023-04-30T09:55:44.365Z,4.85
2023-04-30T10:00:40.249Z,5.28
2023-04-30T10:03:12.490Z,4.95
2023-04-30T10:05:47.417Z,5.00
2023-04-30T10:08:28.696Z,4.93
2023-04-30T10:11:07.253Z,4.28
2023-04-30T10:13:48.550Z,5.00
2023-04-30T10:16:27.732Z,6.28
2023-04-30T10:18:58.262Z,4.88
2023-04-30T10:21:27.508Z,4.50
2023-04-30T10:23:55.293Z,4.20
2023-04-30T10:26:23.248Z,5.65
2023-04-30T10:28:50.801Z,4.80
2023-04-30T10:31:19.606Z,5.32
2023-04-30T10:34:08.607Z,5.00
2023-04-30T10:36:51.796Z,5.28
2023-04-30T10:39:21.478Z,4.85
2023-04-30T10:41:49.200Z,4.60
2023-04-30T10:44:22.849Z,4.55
2023-04-30T10:46:49.936Z,4.35
2023-04-30T10:49:26.243Z,4.97
2023-04-30T10:51:57.239Z,4.93
2023-04-30T10:54:29.539Z,5.25
2023-04-30T10:57:14.354Z,5.00
2023-04-30T10:59:53.365Z,4.95
2023-04-30T11:02:20.841Z,5.78
2023-04-30T11:05:13.637Z,5.00
2023-04-30T11:07:56.594Z,4.47
2023-04-30T11:10:25.680Z,4.97
2023-04-30T11:12:55.164Z,5.15
2023-04-30T11:15:26.282Z,5.47
2023-04-30T11:17:59.070Z,5.50
2023-04-30T11:20:27.013Z,4.82
2023-04-30T11:23:22.083Z,5.20
2023-04-30T11:26:01.277Z,5.18
2023-04-30T11:28:29.173Z,5.22
2023-04-30T11:30:58.380Z,4.97
2023-04-30T11:33:33.429Z,5.22
2023-04-30T11:36:01.745Z,5.05
2023-04-30T11:38:35.437Z,5.00
2023-04-30T11:41:03.802Z,5.25
2023-04-30T11:43:32.866Z,4.70
2023-04-30T11:46:14.652Z,5.75
2023-04-30T11:48:44.124Z,5.22
2023-04-30T11:51:18.884Z,5.13
2023-04-30T11:53:48.899Z,5.00
2023-04-30T11:56:24.624Z,5.85
2023-04-30T11:58:53.579Z,4.78
2023-04-30T12:01:21.422Z,5.28
2023-04-30T12:03:50.350Z,4.97
2023-04-30T12:06:28.396Z,6.97
2023-04-30T12:08:57.255Z,5.20
2023-04-30T12:11:34.998Z,4.90
2023-04-30T12:14:04.562Z,5.22
2023-04-30T12:16:46.245Z,4.72
2023-04-30T12:19:13.456Z,5.78
2023-04-30T12:21:42.200Z,5.25
2023-04-30T12:24:11.195Z,5.47
2023-04-30T12:26:42.247Z,5.32
2023-04-30T12:29:13.496Z,5.68
2023-04-30T12:31:42.721Z,5.55
2023-04-30T12:34:12.372Z,4.65
2023-04-30T12:39:16.360Z,4.55
2023-04-30T12:41:48.099Z,5.32
2023-04-30T12:44:26.266Z,5.20
2023-04-30T12:47:00.925Z,5.50
2023-04-30T12:49:30.389Z,5.13
2023-04-30T12:52:02.399Z,5.15
2023-04-30T12:54:31.790Z,5.03
2023-04-30T12:57:01.553Z,5.20
2023-04-30T12:59:32.712Z,5.75
2023-04-30T13:02:10.368Z,5.28
2023-04-30T13:04:37.862Z,5.63
2023-04-30T13:07:05.258Z,5.30
2023-04-30T13:09:34.080Z,4.97
2023-04-30T13:12:01.515Z,4.75
2023-04-30T13:14:28.573Z,5.07
2023-04-30T13:16:55.846Z,4.93
2023-04-30T13:19:22.947Z,4.78
2023-04-30T13:21:50.072Z,5.22
2023-04-30T13:24:17.954Z,5.35
2023-04-30T13:26:45.202Z,4.72
2023-04-30T13:29:12.460Z,5.88
2023-04-30T13:31:39.415Z,4.88
2023-04-30T13:34:07.797Z,4.53
2023-04-30T13:36:34.942Z,5.28
2023-04-30T13:39:01.967Z,5.30
2023-04-30T13:41:28.969Z,5.13
2023-04-30T13:43:56.076Z,5.25
2023-04-30T13:46:25.114Z,6.55
2023-04-30T13:48:53.620Z,5.28
2023-04-30T13:51:20.640Z,4.97
2023-04-30T13:53:47.706Z,5.18
2023-04-30T13:56:15.702Z,5.57
2023-04-30T13:58:42.701Z,5.15
2023-04-30T14:01:10.670Z,4.88
2023-04-30T14:03:37.950Z,5.03
2023-04-30T14:06:06.145Z,6.93
2023-04-30T14:08:34.033Z,5.15
2023-04-30T14:11:01.647Z,4.75
2023-04-30T14:13:28.695Z,5.05
2023-04-30T14:15:56.315Z,5.15
2023-04-30T14:18:23.748Z,4.75
2023-04-30T14:20:51.250Z,4.72
2023-04-30T14:23:18.218Z,4.60
2023-04-30T14:25:45.153Z,4.80
2023-04-30T14:28:12.216Z,5.13
2023-04-30T14:30:39.376Z,4.68
2023-04-30T14:33:06.802Z,5.18
2023-04-30T14:35:37.619Z,4.68
2023-04-30T14:38:04.607Z,4.90
2023-04-30T14:40:31.634Z,7.45
2023-04-30T14:42:58.593Z,5.10
2023-04-30T14:45:28.440Z,5.00
2023-04-30T14:47:55.658Z,5.20
2023-04-30T14:50:25.793Z,5.28
2023-04-30T14:52:52.934Z,5.53
2023-04-30T14:55:19.941Z,5.15
2023-04-30T14:57:47.218Z,5.50
2023-04-30T15:00:15.965Z,5.25
2023-04-30T15:02:43.235Z,5.10
2023-04-30T15:05:10.550Z,5.13
2023-04-30T15:07:37.524Z,4.97
2023-04-30T15:10:05.954Z,4.90
2023-04-30T15:12:33.084Z,5.63
2023-04-30T15:15:01.040Z,5.07
2023-04-30T15:17:28.765Z,4.88
2023-04-30T15:19:56.624Z,4.45
2023-04-30T15:22:24.366Z,4.38
2023-04-30T15:24:51.334Z,5.43
2023-04-30T15:27:18.768Z,4.57
2023-04-30T15:29:46.791Z,4.93
2023-04-30T15:32:14.287Z,4.45
2023-04-30T15:34:41.298Z,4.55
2023-04-30T15:37:08.383Z,4.80
2023-04-30T15:39:35.717Z,5.40
2023-04-30T15:42:02.745Z,4.95
2023-04-30T15:44:29.841Z,4.75
2023-04-30T15:46:56.999Z,5.53
2023-04-30T15:49:24.120Z,5.50
2023-04-30T15:51:52.712Z,5.18
2023-04-30T15:54:19.768Z,4.90
2023-04-30T15:56:47.827Z,4.95
2023-04-30T15:59:17.773Z,5.93
2023-04-30T16:01:46.747Z,4.50
2023-04-30T16:04:13.743Z,5.65
2023-04-30T16:06:41.104Z,4.97
2023-04-30T16:09:09.074Z,4.63
2023-04-30T16:11:36.511Z,5.60
2023-04-30T16:14:03.712Z,4.88
2023-04-30T16:16:30.774Z,5.93
2023-04-30T16:18:57.776Z,5.05
2023-04-30T16:21:24.817Z,4.75
2023-04-30T16:23:51.897Z,4.82
2023-04-30T16:26:18.937Z,5.82
2023-04-30T16:28:47.266Z,4.57
2023-04-30T16:31:15.835Z,5.47
2023-04-30T16:33:43.241Z,4.72
2023-04-30T16:36:11.278Z,4.80
2023-04-30T16:38:38.241Z,4.45
2023-04-30T16:41:05.397Z,4.75
2023-04-30T16:43:32.346Z,4.82
2023-04-30T16:45:59.424Z,5.05
2023-04-30T16:48:26.411Z,5.43
2023-04-30T16:50:56.123Z,4.70
2023-04-30T16:53:23.139Z,4.90
2023-04-30T16:55:51.695Z,4.75
2023-04-30T16:58:19.258Z,5.03
2023-04-30T17:00:46.373Z,5.18
2023-04-30T17:03:13.472Z,4.70
2023-04-30T17:05:40.515Z,5.20
2023-04-30T17:08:07.650Z,5.72
2023-04-30T17:10:34.601Z,4.90
2023-04-30T17:13:04.268Z,4.63
2023-04-30T17:17:58.484Z,6.35
2023-04-30T17:20:25.405Z,4.57
2023-04-30T17:22:53.686Z,5.05
2023-04-30T17:25:20.773Z,4.40
2023-04-30T17:27:48.248Z,5.50
2023-04-30T17:30:15.623Z,5.07
2023-04-30T17:32:43.778Z,5.18
2023-04-30T17:35:11.126Z,6.30
2023-04-30T17:37:38.150Z,6.35
2023-04-30T17:40:05.797Z,6.30
2023-04-30T17:42:34.422Z,5.68
2023-04-30T17:45:01.458Z,5.28
2023-04-30T17:47:28.630Z,6.20
2023-04-30T17:49:56.321Z,5.95
2023-04-30T17:52:23.910Z,5.68
2023-04-30T17:54:50.924Z,6.30
2023-04-30T17:57:17.830Z,6.22
2023-04-30T17:59:44.880Z,6.05
2023-04-30T18:02:12.044Z,6.22
2023-04-30T18:04:39.150Z,6.03
2023-04-30T18:07:06.197Z,6.00
2023-04-30T18:09:33.094Z,5.75
2023-04-30T18:12:00.280Z,6.55
2023-04-30T18:14:27.558Z,6.53
2023-04-30T18:16:54.837Z,6.45
2023-04-30T18:19:21.763Z,6.15
2023-04-30T18:21:48.747Z,5.72
2023-04-30T18:24:16.009Z,6.97
2023-04-30T18:26:42.970Z,6.90
2023-04-30T18:29:10.056Z,6.80
2023-04-30T18:31:37.582Z,6.47
2023-04-30T18:34:04.972Z,7.70
2023-04-30T18:36:32.042Z,7.15
2023-04-30T18:38:59.342Z,7.20
2023-04-30T18:41:27.112Z,7.25
2023-04-30T18:43:54.327Z,7.07
2023-04-30T18:46:22.244Z,7.25
2023-04-30T18:48:49.190Z,7.47
2023-04-30T18:51:16.885Z,7.00
2023-04-30T18:53:45.509Z,7.63
2023-04-30T18:56:12.740Z,8.68
2023-04-30T18:58:39.737Z,7.80
2023-04-30T19:01:08.655Z,7.43
2023-04-30T19:03:35.804Z,7.53
2023-04-30T19:06:04.245Z,7.32
2023-04-30T19:08:31.312Z,8.15
2023-04-30T19:10:58.288Z,7.65
2023-04-30T19:13:25.363Z,7.25
2023-04-30T19:15:53.979Z,8.10
2023-04-30T19:18:21.534Z,6.20
2023-04-30T19:21:00.366Z,6.57
2023-04-30T19:23:30.728Z,6.82
2023-04-30T19:25:58.753Z,7.53
2023-04-30T19:28:26.189Z,7.30
2023-04-30T19:30:55.175Z,6.90
2023-04-30T19:33:22.925Z,6.97
2023-04-30T19:35:55.912Z,7.43
2023-04-30T19:38:22.928Z,8.10
2023-04-30T19:40:54.805Z,8.05
2023-04-30T19:43:23.173Z,11.40
2023-04-30T19:45:55.851Z,7.25
2023-04-30T19:48:23.885Z,7.78
2023-04-30T19:50:53.477Z,7.20
2023-04-30T19:53:21.694Z,7.70
2023-04-30T19:55:48.739Z,7.75
2023-04-30T19:58:15.692Z,7.55
2023-04-30T20:00:45.275Z,7.85
2023-04-30T20:03:14.347Z,7.13
2023-04-30T20:05:41.476Z,8.20
2023-04-30T20:08:09.413Z,7.70
2023-04-30T20:10:38.535Z,7.68
2023-04-30T20:13:06.825Z,7.33
2023-04-30T20:15:34.128Z,8.18
2023-04-30T20:18:01.717Z,7.97
2023-04-30T20:20:29.573Z,7.03
2023-04-30T20:22:56.763Z,7.75
2023-04-30T20:25:29.866Z,7.70
2023-04-30T20:27:57.252Z,7.45
2023-04-30T20:30:24.218Z,7.30
2023-04-30T20:32:51.542Z,7.68
2023-04-30T20:35:18.638Z,7.40
2023-04-30T20:37:45.639Z,7.63
2023-04-30T20:40:13.417Z,7.38
2023-04-30T20:42:40.975Z,7.53
2023-04-30T20:45:08.661Z,7.10
2023-04-30T20:47:35.770Z,7.32
2023-04-30T20:50:03.177Z,7.03
2023-04-30T20:52:30.276Z,7.15
2023-04-30T20:54:59.607Z,7.13
2023-04-30T20:57:26.940Z,7.45
2023-04-30T20:59:54.063Z,6.55
2023-04-30T21:02:21.325Z,7.53
2023-04-30T21:04:48.309Z,7.40
2023-04-30T21:07:15.280Z,7.40
2023-04-30T21:09:42.338Z,7.70
2023-04-30T21:12:09.699Z,7.45
2023-04-30T21:14:36.558Z,8.75
2023-04-30T21:17:03.521Z,7.47
2023-04-30T21:19:31.754Z,7.13
2023-04-30T21:21:58.866Z,7.18
2023-04-30T21:24:25.962Z,7.90
2023-04-30T21:26:54.579Z,7.25
2023-04-30T21:29:22.079Z,7.93
2023-04-30T21:31:49.089Z,7.05
2023-04-30T21:34:16.111Z,6.57
2023-04-30T21:36:43.364Z,7.75
2023-04-30T21:39:10.447Z,7.75
2023-04-30T21:41:37.416Z,7.53
2023-04-30T21:44:04.444Z,6.50
2023-04-30T21:46:31.581Z,6.75
2023-04-30T21:48:59.431Z,6.72
2023-04-30T21:51:26.799Z,6.50
2023-04-30T21:53:53.958Z,6.68
2023-04-30T21:56:21.855Z,7.93
2023-04-30T21:58:48.896Z,6.82
2023-04-30T22:01:15.869Z,7.40
2023-04-30T22:03:42.948Z,7.20
2023-04-30T22:06:12.784Z,6.70
2023-04-30T22:08:39.812Z,7.47
2023-04-30T22:11:06.765Z,7.45
2023-04-30T22:13:33.698Z,7.25
2023-04-30T22:16:01.417Z,6.75
2023-04-30T22:18:28.416Z,7.22
2023-04-30T22:20:55.349Z,6.85
2023-04-30T22:23:22.352Z,7.00
2023-04-30T22:25:49.467Z,6.93
2023-04-30T22:28:18.204Z,7.15
2023-04-30T22:30:45.484Z,7.78
2023-04-30T22:33:12.654Z,7.40
2023-04-30T22:35:40.064Z,7.50
2023-04-30T22:38:07.948Z,7.72
2023-04-30T22:40:38.701Z,6.95
2023-04-30T22:43:06.102Z,7.72
2023-04-30T22:45:41.203Z,7.22
2023-04-30T22:48:09.992Z,7.65
2023-04-30T22:50:37.252Z,7.30
2023-04-30T22:53:04.629Z,6.90
2023-04-30T22:55:33.054Z,7.00
2023-04-30T22:58:02.366Z,8.02
2023-04-30T23:00:29.647Z,6.97
2023-04-30T23:02:57.100Z,7.35
2023-04-30T23:05:24.269Z,6.93
2023-04-30T23:07:51.533Z,6.82
2023-04-30T23:10:18.643Z,6.45
2023-04-30T23:12:45.654Z,6.97
2023-04-30T23:15:12.731Z,6.53
2023-04-30T23:17:40.030Z,7.10
2023-04-30T23:20:08.161Z,6.57
2023-04-30T23:22:35.333Z,7.13
2023-04-30T23:25:02.544Z,7.63
2023-04-30T23:27:30.041Z,6.72
2023-04-30T23:29:57.830Z,7.07
2023-04-30T23:32:25.038Z,6.68
2023-04-30T23:34:52.127Z,6.75
2023-04-30T23:37:19.137Z,7.03
2023-04-30T23:39:46.098Z,7.03
2023-04-30T23:42:13.747Z,7.47
2023-04-30T23:44:40.864Z,6.30
2023-04-30T23:47:07.824Z,7.38
2023-04-30T23:49:34.711Z,6.85
2023-04-30T23:52:01.684Z,6.80
2023-04-30T23:54:28.975Z,6.65
2023-04-30T23:56:56.096Z,9.80
2023-04-30T23:59:24.986Z,7.90
